createdAt,value
2019-02-07T00:00:51.057Z,101301.02
2019-02-07T00:03:55.337Z,101290.45
2019-02-07T00:06:59.613Z,101296.18
2019-02-07T00:10:04.861Z,101294.43
2019-02-07T00:13:09.255Z,101291.82
2019-02-07T00:16:13.539Z,101291.83
2019-02-07T00:19:18.116Z,101277.78
2019-02-07T00:22:22.401Z,101279.53
2019-02-07T00:25:26.693Z,101279.53
2019-02-07T00:28:31.051Z,101273.83
2019-02-07T00:31:35.356Z,101276.04
2019-02-07T00:34:39.759Z,101272.94
2019-02-07T00:37:44.134Z,101269.88
2019-02-07T00:40:48.431Z,101261.97
2019-02-07T00:43:52.735Z,101256.27
2019-02-07T00:46:57.039Z,101259.78
2019-02-07T00:50:01.337Z,101252.77
2019-02-07T00:53:05.702Z,101233.00
2019-02-07T00:56:10.170Z,101233.87
2019-02-07T00:59:14.834Z,101231.23
2019-02-07T01:02:19.251Z,101221.13
2019-02-07T01:05:23.750Z,101217.58
2019-02-07T01:08:28.076Z,101210.56
2019-02-07T01:11:32.420Z,101212.33
2019-02-07T01:14:36.744Z,101210.99
2019-02-07T01:17:41.063Z,101206.16
2019-02-07T01:20:45.379Z,101196.05
2019-02-07T01:23:49.678Z,101185.06
2019-02-07T01:26:53.995Z,101180.67
2019-02-07T01:29:58.379Z,101175.38
2019-02-07T01:33:02.741Z,101173.16
2019-02-07T01:36:07.106Z,101170.10
2019-02-07T01:39:11.547Z,101165.27
2019-02-07T01:42:16.059Z,101164.84
2019-02-07T01:45:22.375Z,101154.28
2019-02-07T01:48:26.830Z,101153.88
2019-02-07T01:51:31.515Z,101152.55
2019-02-07T01:54:36.100Z,101142.42
2019-02-07T01:57:40.539Z,101131.89
2019-02-07T02:00:44.871Z,101132.37
2019-02-07T02:03:49.574Z,101131.03
2019-02-07T02:06:53.912Z,101115.63
2019-02-07T02:09:58.210Z,101116.08
2019-02-07T02:13:05.387Z,101111.27
2019-02-07T02:16:09.675Z,101113.02
2019-02-07T02:19:13.976Z,101106.88
2019-02-07T02:22:18.348Z,101094.59
2019-02-07T02:25:23.332Z,101084.04
2019-02-07T02:28:27.655Z,101077.44
2019-02-07T02:31:32.448Z,101063.41
2019-02-07T02:34:36.972Z,101062.95
2019-02-07T02:37:41.438Z,101052.42
2019-02-07T02:40:45.752Z,101049.38
2019-02-07T02:43:50.183Z,101038.83
2019-02-07T02:46:54.754Z,101035.77
2019-02-07T02:49:59.260Z,101031.81
2019-02-07T02:53:03.601Z,101025.22
2019-02-07T02:56:08.219Z,101026.98
2019-02-07T02:59:12.546Z,101020.39
2019-02-07T03:02:36.204Z,101005.45
2019-02-07T03:05:57.452Z,101002.82
2019-02-07T03:09:19.446Z,100999.31
2019-02-07T03:12:44.040Z,100995.80
2019-02-07T03:16:04.580Z,100981.31
2019-02-07T03:19:34.412Z,100978.22
2019-02-07T03:22:56.506Z,100968.55
2019-02-07T03:26:22.571Z,100957.59
2019-02-07T03:29:54.764Z,100951.45
2019-02-07T03:33:16.895Z,100944.42
2019-02-07T03:36:38.169Z,100936.50
2019-02-07T03:40:07.706Z,100925.09
2019-02-07T03:43:42.775Z,100912.80
2019-02-07T03:46:58.739Z,100912.36
2019-02-07T03:50:21.027Z,100898.73
2019-02-07T03:53:50.428Z,100890.86
2019-02-07T03:57:13.699Z,100885.59
2019-02-07T04:00:43.511Z,100872.39
2019-02-07T04:04:02.150Z,100875.04
2019-02-07T04:07:31.673Z,100868.91
2019-02-07T04:10:53.817Z,100861.86
2019-02-07T04:14:35.571Z,100855.72
2019-02-07T04:18:10.483Z,100845.17
2019-02-07T04:21:42.642Z,100834.61
2019-02-07T04:25:04.855Z,100831.55
2019-02-07T04:28:18.358Z,100817.93
2019-02-07T04:31:40.262Z,100818.77
2019-02-07T04:35:15.704Z,100803.41
2019-02-07T04:38:37.896Z,100798.17
2019-02-07T04:41:57.768Z,100790.28
2019-02-07T04:45:29.424Z,100782.35
2019-02-07T04:48:51.340Z,100773.57
2019-02-07T04:52:06.238Z,100765.17
2019-02-07T04:55:26.249Z,100764.70
2019-02-07T04:58:48.367Z,100759.84
2019-02-07T05:02:10.678Z,100753.31
2019-02-07T05:05:39.844Z,100744.48
2019-02-07T05:08:50.265Z,100740.55
2019-02-07T05:12:13.508Z,100728.74
2019-02-07T05:15:39.800Z,100717.72
2019-02-07T05:19:06.087Z,100707.19
2019-02-07T05:22:38.380Z,100699.27
2019-02-07T05:26:00.610Z,100691.37
2019-02-07T05:29:24.073Z,100680.77
2019-02-07T05:36:11.773Z,100656.66
2019-02-07T05:39:34.334Z,100652.23
2019-02-07T05:42:56.356Z,100637.69
2019-02-07T05:46:25.567Z,100646.96
2019-02-07T05:49:51.656Z,100631.53
2019-02-07T05:53:33.316Z,100634.63
2019-02-07T05:56:55.317Z,100618.80
2019-02-07T06:00:28.173Z,100615.73
2019-02-07T06:03:56.270Z,100605.22
2019-02-07T06:07:19.642Z,100597.81
2019-02-07T06:10:44.546Z,100593.33
2019-02-07T06:14:13.675Z,100594.14
2019-02-07T06:17:35.669Z,100581.04
2019-02-07T06:20:58.927Z,100582.80
2019-02-07T06:24:12.805Z,100573.56
2019-02-07T06:27:39.059Z,100564.36
2019-02-07T06:30:52.367Z,100566.56
2019-02-07T06:34:30.667Z,100555.94
2019-02-07T06:37:57.156Z,100545.86
2019-02-07T06:41:19.059Z,100539.27
2019-02-07T06:44:45.225Z,100534.92
2019-02-07T06:48:08.277Z,100520.84
2019-02-07T06:51:30.137Z,100514.63
2019-02-07T06:54:52.404Z,100511.65
2019-02-07T06:58:25.317Z,100504.66
2019-02-07T07:01:47.203Z,100485.38
2019-02-07T07:05:02.424Z,100487.06
2019-02-07T07:08:26.591Z,100481.84
2019-02-07T07:11:47.786Z,100474.41
2019-02-07T07:15:17.569Z,100476.52
2019-02-07T07:18:40.026Z,100462.87
2019-02-07T07:22:09.266Z,100459.84
2019-02-07T07:25:28.840Z,100452.37
2019-02-07T07:28:42.326Z,100432.63
2019-02-07T07:32:08.751Z,100427.20
2019-02-07T07:35:31.261Z,100415.70
2019-02-07T07:39:03.578Z,100405.71
2019-02-07T07:42:42.035Z,100411.14
2019-02-07T07:46:08.410Z,100401.76
2019-02-07T07:49:34.472Z,100398.55
2019-02-07T07:52:57.765Z,100386.28
2019-02-07T07:56:21.026Z,100379.72
2019-02-07T07:59:50.407Z,100372.33
2019-02-07T08:03:31.981Z,100377.27
2019-02-07T08:06:55.236Z,100373.24
2019-02-07T08:10:36.742Z,100357.02
2019-02-07T08:13:59.268Z,100360.09
2019-02-07T08:17:31.644Z,100345.17
2019-02-07T08:21:13.051Z,100345.97
2019-02-07T08:24:51.663Z,100338.86
2019-02-07T08:28:18.060Z,100335.05
2019-02-07T08:31:56.708Z,100335.59
2019-02-07T08:35:26.472Z,100315.28
2019-02-07T08:38:45.240Z,100305.05
2019-02-07T08:42:14.723Z,100305.19
2019-02-07T08:45:36.826Z,100290.41
2019-02-07T08:49:01.091Z,100293.63
2019-02-07T08:52:21.792Z,100284.41
2019-02-07T08:55:46.178Z,100282.26
2019-02-07T08:59:08.128Z,100277.31
2019-02-07T09:02:34.643Z,100272.59
2019-02-07T09:05:50.144Z,100266.88
2019-02-07T09:09:14.103Z,100269.93
2019-02-07T09:12:55.132Z,100254.47
2019-02-07T09:16:12.829Z,100249.78
2019-02-07T09:19:31.705Z,100247.14
2019-02-07T09:22:46.900Z,100243.08
2019-02-07T09:26:16.258Z,100234.14
2019-02-07T09:29:48.799Z,100227.64
2019-02-07T09:33:10.971Z,100221.42
2019-02-07T09:36:52.650Z,100221.95
2019-02-07T09:40:21.677Z,100217.35
2019-02-07T09:43:57.296Z,100219.20
2019-02-07T09:47:38.667Z,100213.90
2019-02-07T09:51:07.763Z,100213.45
2019-02-07T09:54:40.677Z,100204.54
2019-02-07T09:58:16.579Z,100211.64
2019-02-07T10:01:33.042Z,100206.02
2019-02-07T10:05:02.945Z,100201.56
2019-02-07T10:08:28.182Z,100200.99
2019-02-07T10:11:51.671Z,100204.07
2019-02-07T10:15:15.019Z,100197.51
2019-02-07T10:18:56.333Z,100197.85
2019-02-07T10:22:14.452Z,100190.24
2019-02-07T10:25:37.125Z,100191.62
2019-02-07T10:29:06.494Z,100186.55
2019-02-07T10:32:30.024Z,100185.20
2019-02-07T10:35:51.987Z,100178.20
2019-02-07T10:39:14.616Z,100177.42
2019-02-07T10:42:37.215Z,100165.78
2019-02-07T10:46:02.453Z,100159.30
2019-02-07T10:49:38.217Z,100155.95
2019-02-07T10:53:08.258Z,100156.25
2019-02-07T10:56:40.682Z,100148.61
2019-02-07T11:00:05.070Z,100144.52
2019-02-07T11:03:36.174Z,100143.45
2019-02-07T11:07:11.796Z,100129.02
2019-02-07T11:10:34.275Z,100132.37
2019-02-07T11:17:35.980Z,100122.86
2019-02-07T11:20:58.290Z,100123.09
2019-02-07T11:24:32.057Z,100128.05
2019-02-07T11:27:51.647Z,100116.46
2019-02-07T11:31:20.715Z,100104.46
2019-02-07T11:34:53.232Z,100101.75
2019-02-07T11:38:25.694Z,100100.42
2019-02-07T11:41:42.139Z,100101.27
2019-02-07T11:45:14.704Z,100114.20
2019-02-07T11:48:26.560Z,100105.36
2019-02-07T11:51:46.648Z,100096.95
2019-02-07T11:55:09.980Z,100095.64
2019-02-07T11:58:33.588Z,100094.63
2019-02-07T12:01:57.246Z,100087.09
2019-02-07T12:05:32.919Z,100077.63
2019-02-07T12:09:08.410Z,100071.37
2019-02-07T12:12:30.817Z,100084.21
2019-02-07T12:15:46.719Z,100084.15
2019-02-07T12:19:23.623Z,100068.84
2019-02-07T12:22:52.937Z,100085.14
2019-02-07T12:26:13.468Z,100070.11
2019-02-07T12:29:50.527Z,100089.25
2019-02-07T12:33:21.448Z,100099.83
2019-02-07T12:36:36.098Z,100090.94
2019-02-07T12:40:08.485Z,100085.19
2019-02-07T12:43:30.588Z,100073.95
2019-02-07T12:46:50.805Z,100072.19
2019-02-07T12:50:25.650Z,100072.74
2019-02-07T12:53:51.725Z,100067.50
2019-02-07T12:57:13.947Z,100071.13
2019-02-07T13:00:37.655Z,100068.10
2019-02-07T13:03:59.518Z,100063.37
2019-02-07T13:07:32.552Z,100067.49
2019-02-07T13:11:04.753Z,100076.96
2019-02-07T13:14:20.549Z,100064.02
2019-02-07T13:17:36.195Z,100065.67
2019-02-07T13:20:51.363Z,100080.31
2019-02-07T13:24:13.405Z,100075.50
2019-02-07T13:27:48.934Z,100066.89
2019-02-07T13:31:12.258Z,100077.84
2019-02-07T13:34:35.858Z,100093.16
2019-02-07T13:38:04.949Z,100074.81
2019-02-07T13:41:37.439Z,100086.77
2019-02-07T13:45:00.709Z,100092.52
2019-02-07T13:48:24.610Z,100080.72
2019-02-07T13:51:50.934Z,100087.82
2019-02-07T13:55:14.191Z,100079.16
2019-02-07T13:58:36.479Z,100071.27
2019-02-07T14:02:04.756Z,100073.75
2019-02-07T14:05:31.670Z,100067.59
2019-02-07T14:08:57.953Z,100068.03
2019-02-07T14:12:30.133Z,100066.50
2019-02-07T14:15:44.787Z,100068.08
2019-02-07T14:19:08.126Z,100062.06
2019-02-07T14:22:26.889Z,100070.91
2019-02-07T14:25:59.669Z,100058.33
2019-02-07T14:29:21.631Z,100063.52
2019-02-07T14:32:53.999Z,100058.83
2019-02-07T14:36:11.928Z,100050.64
2019-02-07T14:39:40.418Z,100060.87
2019-02-07T14:43:06.805Z,100052.71
2019-02-07T14:46:30.070Z,100047.05
2019-02-07T14:49:34.502Z,100050.20
2019-02-07T14:52:38.875Z,100034.84
2019-02-07T14:55:43.503Z,100035.45
2019-02-07T14:58:47.848Z,100039.16
2019-02-07T15:01:52.235Z,100030.52
2019-02-07T15:04:56.615Z,100025.22
2019-02-07T15:08:01.140Z,100025.02
2019-02-07T15:11:06.230Z,100013.75
2019-02-07T15:14:10.536Z,100027.56
2019-02-07T15:17:14.830Z,100014.11
2019-02-07T15:20:26.302Z,100011.13
2019-02-07T15:23:25.494Z,100008.44
2019-02-07T15:26:29.792Z,100000.89
2019-02-07T15:29:37.092Z,99992.56
2019-02-07T15:32:41.591Z,100001.88
2019-02-07T15:35:48.671Z,99988.83
2019-02-07T15:38:52.950Z,99986.25
2019-02-07T15:41:57.780Z,99986.51
2019-02-07T15:45:02.171Z,99977.75
2019-02-07T15:48:06.511Z,99980.17
2019-02-07T15:51:11.642Z,99979.52
2019-02-07T15:54:16.877Z,99983.80
2019-02-07T15:57:21.866Z,99979.50
2019-02-07T16:00:59.327Z,99991.02
2019-02-07T16:04:08.825Z,99980.67
2019-02-07T16:07:13.127Z,99976.15
2019-02-07T16:10:18.296Z,99974.72
2019-02-07T16:13:22.650Z,99966.08
2019-02-07T16:16:27.230Z,99969.76
2019-02-07T16:19:33.277Z,99975.94
2019-02-07T16:22:37.560Z,99958.42
2019-02-07T16:25:41.912Z,99958.05
2019-02-07T16:28:46.290Z,99954.41
2019-02-07T16:31:50.700Z,99944.27
2019-02-07T16:34:55.005Z,99943.07
2019-02-07T16:37:59.293Z,99939.87
2019-02-07T16:41:03.676Z,99949.78
2019-02-07T16:44:08.203Z,99945.53
2019-02-07T16:47:12.646Z,99936.67
2019-02-07T16:50:17.978Z,99930.23
2019-02-07T16:53:22.252Z,99927.14
2019-02-07T16:56:26.721Z,99944.76
2019-02-07T16:59:31.020Z,99942.08
2019-02-07T17:02:35.302Z,99929.30
2019-02-07T17:05:42.839Z,99925.44
2019-02-07T17:08:47.148Z,99930.80
2019-02-07T17:11:51.446Z,99929.56
2019-02-07T17:14:55.848Z,99923.45
2019-02-07T17:18:00.209Z,99926.46
2019-02-07T17:21:11.455Z,99933.22
2019-02-07T17:24:10.525Z,99918.98
2019-02-07T17:27:14.802Z,99903.48
2019-02-07T17:30:20.866Z,99900.75
2019-02-07T17:33:25.422Z,99908.70
2019-02-07T17:36:29.730Z,99903.52
2019-02-07T17:39:37.304Z,99923.78
2019-02-07T17:42:41.608Z,99923.28
2019-02-07T17:45:45.996Z,99942.53
2019-02-07T17:48:50.279Z,99943.88
2019-02-07T17:51:54.621Z,99951.11
2019-02-07T17:55:01.908Z,99952.67
2019-02-07T17:58:07.706Z,99928.79
2019-02-07T18:01:12.146Z,99955.93
2019-02-07T18:04:17.753Z,99950.53
2019-02-07T18:07:22.137Z,99938.70
2019-02-07T18:10:28.635Z,99939.75
2019-02-07T18:13:32.770Z,99941.69
2019-02-07T18:16:37.107Z,99926.47
2019-02-07T18:19:41.510Z,99932.72
2019-02-07T18:22:45.831Z,99911.73
2019-02-07T18:25:50.259Z,99927.57
2019-02-07T18:28:54.522Z,99925.73
2019-02-07T18:31:58.803Z,99924.58
2019-02-07T18:35:03.085Z,99922.20
2019-02-07T18:38:07.955Z,99944.37
2019-02-07T18:41:12.367Z,99947.22
2019-02-07T18:44:16.679Z,99930.86
2019-02-07T18:47:21.024Z,99942.08
2019-02-07T18:50:28.526Z,99921.62
2019-02-07T18:53:32.842Z,99928.66
2019-02-07T18:56:37.232Z,99922.75
2019-02-07T18:59:41.534Z,99937.24
2019-02-07T19:02:45.805Z,99941.30
2019-02-07T19:05:50.118Z,99932.58
2019-02-07T19:08:54.436Z,99946.56
2019-02-07T19:11:58.714Z,99943.40
2019-02-07T19:15:03.104Z,99989.88
2019-02-07T19:18:07.464Z,99944.20
2019-02-07T19:21:11.736Z,99956.77
2019-02-07T19:24:16.066Z,99934.59
2019-02-07T19:27:20.548Z,99929.42
2019-02-07T19:30:27.435Z,99940.15
2019-02-07T19:33:32.790Z,99947.38
2019-02-07T19:36:38.832Z,99933.16
2019-02-07T19:39:44.416Z,99945.79
2019-02-07T19:42:50.357Z,99960.13
2019-02-07T19:45:56.034Z,99958.89
2019-02-07T19:49:01.912Z,99956.45
2019-02-07T19:52:08.633Z,99958.90
2019-02-07T19:55:15.795Z,99959.17
2019-02-07T19:58:20.775Z,99962.66
2019-02-07T20:01:25.206Z,99965.64
2019-02-07T20:04:29.905Z,99962.58
2019-02-07T20:07:34.321Z,99964.81
2019-02-07T20:10:38.968Z,99968.96
2019-02-07T20:13:43.400Z,99982.10
2019-02-07T20:16:47.979Z,99989.17
2019-02-07T20:19:52.575Z,99981.39
2019-02-07T20:22:57.103Z,99975.95
2019-02-07T20:26:01.625Z,99998.80
2019-02-07T20:29:06.218Z,99988.98
2019-02-07T20:32:10.715Z,99988.74
2019-02-07T20:35:15.431Z,100003.95
2019-02-07T20:38:19.822Z,99984.47
2019-02-07T20:41:24.175Z,100029.11
2019-02-07T20:44:28.526Z,100022.81
2019-02-07T20:47:35.581Z,100026.77
2019-02-07T20:50:40.268Z,100028.41
2019-02-07T20:53:44.747Z,100027.94
2019-02-07T20:56:49.266Z,100031.56
2019-02-07T20:59:53.859Z,100043.28
2019-02-07T21:03:00.657Z,100032.17
2019-02-07T21:06:05.465Z,100049.72
2019-02-07T21:09:11.042Z,100039.55
2019-02-07T21:12:15.341Z,100054.81
2019-02-07T21:15:20.097Z,100060.67
2019-02-07T21:18:24.469Z,100059.67
2019-02-07T21:21:28.778Z,100066.02
2019-02-07T21:24:33.079Z,100075.66
2019-02-07T21:27:38.179Z,100079.53
2019-02-07T21:30:42.782Z,100087.45
2019-02-07T21:33:47.287Z,100083.70
2019-02-07T21:36:52.709Z,100096.30
2019-02-07T21:39:57.015Z,100093.49
2019-02-07T21:43:01.411Z,100102.09
2019-02-07T21:46:06.069Z,100100.88
2019-02-07T21:49:10.407Z,100098.88
2019-02-07T21:52:17.140Z,100114.41
2019-02-07T21:55:23.332Z,100111.29
2019-02-07T21:58:27.747Z,100130.23
2019-02-07T22:01:32.152Z,100137.40
2019-02-07T22:04:36.625Z,100126.94
2019-02-07T22:07:41.090Z,100149.94
2019-02-07T22:10:45.378Z,100143.78
2019-02-07T22:13:50.124Z,100151.52
2019-02-07T22:16:55.983Z,100152.27
2019-02-07T22:20:00.254Z,100153.17
2019-02-07T22:23:05.463Z,100165.02
2019-02-07T22:26:09.740Z,100176.37
2019-02-07T22:29:14.307Z,100185.51
2019-02-07T22:32:18.589Z,100174.38
2019-02-07T22:35:23.063Z,100185.30
2019-02-07T22:38:30.130Z,100185.58
2019-02-07T22:41:34.579Z,100195.38
2019-02-07T22:44:39.220Z,100194.37
2019-02-07T22:47:43.690Z,100210.06
2019-02-07T22:50:47.992Z,100209.55
2019-02-07T22:53:55.703Z,100215.84
2019-02-07T22:57:00.377Z,100224.60
2019-02-07T23:00:25.320Z,100222.00
2019-02-07T23:03:29.643Z,100233.93
2019-02-07T23:06:33.935Z,100244.19
2019-02-07T23:09:38.231Z,100239.83
2019-02-07T23:12:42.520Z,100251.42
2019-02-07T23:15:46.998Z,100232.09
2019-02-07T23:18:51.445Z,100233.73
2019-02-07T23:21:55.771Z,100249.75
2019-02-07T23:25:01.100Z,100254.44
2019-02-07T23:28:06.313Z,100246.56
2019-02-07T23:31:12.011Z,100270.45
2019-02-07T23:34:16.725Z,100266.50
2019-02-07T23:37:21.283Z,100270.11
2019-02-07T23:40:25.673Z,100273.56
2019-02-07T23:43:30.335Z,100267.35
2019-02-07T23:46:34.622Z,100259.14
2019-02-07T23:49:41.799Z,100265.05
2019-02-07T23:52:46.516Z,100262.30
2019-02-07T23:55:50.916Z,100274.02
2019-02-07T23:58:55.233Z,100271.64
